sensor_id;sensor_type;location;lat;lon;timestamp;P1;durP1;ratioP1;P2;durP2;ratioP2
15192;SDS011;7697;51.630;7.484;2024-01-06T00:02:58;8.95;;;8.13;;
15192;SDS011;7697;51.630;7.484;2024-01-06T00:08:00;10.02;;;9.00;;
15192;SDS011;7697;51.630;7.484;2024-01-06T00:13:01;9.20;;;8.20;;
15192;SDS011;7697;51.630;7.484;2024-01-06T00:18:05;9.20;;;7.95;;
15192;SDS011;7697;51.630;7.484;2024-01-06T00:23:07;8.93;;;8.02;;
15192;SDS011;7697;51.630;7.484;2024-01-06T00:28:08;9.07;;;8.18;;
15192;SDS011;7697;51.630;7.484;2024-01-06T00:33:11;10.75;;;9.65;;
15192;SDS011;7697;51.630;7.484;2024-01-06T00:38:13;10.18;;;9.18;;
15192;SDS011;7697;51.630;7.484;2024-01-06T00:43:15;10.82;;;9.52;;
15192;SDS011;7697;51.630;7.484;2024-01-06T00:48:18;9.98;;;8.95;;
15192;SDS011;7697;51.630;7.484;2024-01-06T00:53:21;11.25;;;10.02;;
15192;SDS011;7697;51.630;7.484;2024-01-06T00:58:23;11.50;;;10.07;;
15192;SDS011;7697;51.630;7.484;2024-01-06T01:03:26;12.00;;;10.55;;
15192;SDS011;7697;51.630;7.484;2024-01-06T01:08:27;9.75;;;8.75;;
15192;SDS011;7697;51.630;7.484;2024-01-06T01:13:30;10.40;;;9.18;;
15192;SDS011;7697;51.630;7.484;2024-01-06T01:18:33;10.38;;;9.27;;
15192;SDS011;7697;51.630;7.484;2024-01-06T01:23:35;11.27;;;9.88;;
15192;SDS011;7697;51.630;7.484;2024-01-06T01:28:37;10.75;;;9.65;;
15192;SDS011;7697;51.630;7.484;2024-01-06T01:33:40;10.52;;;9.40;;
15192;SDS011;7697;51.630;7.484;2024-01-06T01:38:42;10.75;;;9.63;;
15192;SDS011;7697;51.630;7.484;2024-01-06T01:43:44;12.23;;;10.95;;
15192;SDS011;7697;51.630;7.484;2024-01-06T01:48:48;12.25;;;10.95;;
15192;SDS011;7697;51.630;7.484;2024-01-06T01:53:50;11.35;;;10.13;;
15192;SDS011;7697;51.630;7.484;2024-01-06T01:58:52;11.43;;;10.23;;
15192;SDS011;7697;51.630;7.484;2024-01-06T02:03:55;11.63;;;10.13;;
15192;SDS011;7697;51.630;7.484;2024-01-06T02:08:58;10.35;;;9.30;;
15192;SDS011;7697;51.630;7.484;2024-01-06T02:14:00;9.10;;;8.15;;
15192;SDS011;7697;51.630;7.484;2024-01-06T02:19:03;13.40;;;10.80;;
15192;SDS011;7697;51.630;7.484;2024-01-06T02:24:08;13.52;;;11.13;;
15192;SDS011;7697;51.630;7.484;2024-01-06T02:29:09;13.05;;;11.30;;
15192;SDS011;7697;51.630;7.484;2024-01-06T02:34:11;14.55;;;12.15;;
15192;SDS011;7697;51.630;7.484;2024-01-06T02:39:14;13.63;;;11.60;;
15192;SDS011;7697;51.630;7.484;2024-01-06T02:44:16;12.73;;;10.88;;
15192;SDS011;7697;51.630;7.484;2024-01-06T02:49:17;10.63;;;9.02;;
15192;SDS011;7697;51.630;7.484;2024-01-06T02:54:21;10.25;;;9.07;;
15192;SDS011;7697;51.630;7.484;2024-01-06T02:59:22;11.30;;;9.68;;
15192;SDS011;7697;51.630;7.484;2024-01-06T03:04:24;11.73;;;9.52;;
15192;SDS011;7697;51.630;7.484;2024-01-06T03:09:27;10.15;;;8.48;;
15192;SDS011;7697;51.630;7.484;2024-01-06T03:14:29;9.57;;;7.95;;
15192;SDS011;7697;51.630;7.484;2024-01-06T03:19:30;11.93;;;10.18;;
15192;SDS011;7697;51.630;7.484;2024-01-06T03:24:34;10.77;;;9.10;;
15192;SDS011;7697;51.630;7.484;2024-01-06T03:29:35;12.38;;;9.70;;
15192;SDS011;7697;51.630;7.484;2024-01-06T03:34:37;14.27;;;10.07;;
15192;SDS011;7697;51.630;7.484;2024-01-06T03:39:40;11.98;;;10.23;;
15192;SDS011;7697;51.630;7.484;2024-01-06T03:44:42;13.35;;;10.52;;
15192;SDS011;7697;51.630;7.484;2024-01-06T03:49:43;12.73;;;9.75;;
15192;SDS011;7697;51.630;7.484;2024-01-06T03:54:47;10.50;;;8.93;;
15192;SDS011;7697;51.630;7.484;2024-01-06T03:59:48;13.38;;;9.30;;
15192;SDS011;7697;51.630;7.484;2024-01-06T04:04:50;14.13;;;10.93;;
15192;SDS011;7697;51.630;7.484;2024-01-06T04:09:53;16.13;;;11.07;;
15192;SDS011;7697;51.630;7.484;2024-01-06T04:14:55;15.10;;;11.60;;
15192;SDS011;7697;51.630;7.484;2024-01-06T04:19:56;16.55;;;11.73;;
15192;SDS011;7697;51.630;7.484;2024-01-06T04:25:00;17.50;;;12.45;;
15192;SDS011;7697;51.630;7.484;2024-01-06T04:30:02;18.27;;;12.90;;
15192;SDS011;7697;51.630;7.484;2024-01-06T04:35:04;19.63;;;14.40;;
15192;SDS011;7697;51.630;7.484;2024-01-06T04:40:08;19.85;;;13.63;;
15192;SDS011;7697;51.630;7.484;2024-01-06T04:45:11;22.35;;;15.10;;
15192;SDS011;7697;51.630;7.484;2024-01-06T04:50:13;18.42;;;13.63;;
15192;SDS011;7697;51.630;7.484;2024-01-06T04:55:16;20.08;;;14.10;;
15192;SDS011;7697;51.630;7.484;2024-01-06T05:00:18;19.48;;;14.25;;
15192;SDS011;7697;51.630;7.484;2024-01-06T05:05:19;18.63;;;13.50;;
15192;SDS011;7697;51.630;7.484;2024-01-06T05:10:23;17.17;;;13.15;;
15192;SDS011;7697;51.630;7.484;2024-01-06T05:15:25;16.52;;;11.63;;
15192;SDS011;7697;51.630;7.484;2024-01-06T05:20:27;18.23;;;13.10;;
15192;SDS011;7697;51.630;7.484;2024-01-06T05:25:30;13.98;;;10.95;;
15192;SDS011;7697;51.630;7.484;2024-01-06T05:30:31;16.38;;;12.02;;
15192;SDS011;7697;51.630;7.484;2024-01-06T05:35:33;16.60;;;12.15;;
15192;SDS011;7697;51.630;7.484;2024-01-06T05:40:36;16.15;;;11.80;;
15192;SDS011;7697;51.630;7.484;2024-01-06T05:45:38;15.60;;;11.60;;
15192;SDS011;7697;51.630;7.484;2024-01-06T05:50:41;16.45;;;11.90;;
15192;SDS011;7697;51.630;7.484;2024-01-06T05:55:44;17.73;;;11.82;;
15192;SDS011;7697;51.630;7.484;2024-01-06T06:00:46;16.38;;;11.98;;
15192;SDS011;7697;51.630;7.484;2024-01-06T06:05:48;15.48;;;11.40;;
15192;SDS011;7697;51.630;7.484;2024-01-06T06:10:51;15.00;;;11.30;;
15192;SDS011;7697;51.630;7.484;2024-01-06T06:16:01;13.65;;;9.88;;
15192;SDS011;7697;51.630;7.484;2024-01-06T06:21:03;14.32;;;9.93;;
15192;SDS011;7697;51.630;7.484;2024-01-06T06:26:06;15.13;;;10.68;;
15192;SDS011;7697;51.630;7.484;2024-01-06T06:31:08;17.75;;;11.52;;
15192;SDS011;7697;51.630;7.484;2024-01-06T06:36:10;17.02;;;11.50;;
15192;SDS011;7697;51.630;7.484;2024-01-06T06:41:13;14.88;;;10.68;;
15192;SDS011;7697;51.630;7.484;2024-01-06T06:46:16;15.82;;;10.73;;
15192;SDS011;7697;51.630;7.484;2024-01-06T06:51:17;12.38;;;9.40;;
15192;SDS011;7697;51.630;7.484;2024-01-06T06:56:23;14.23;;;10.33;;
15192;SDS011;7697;51.630;7.484;2024-01-06T07:01:25;15.00;;;11.02;;
15192;SDS011;7697;51.630;7.484;2024-01-06T07:06:26;15.75;;;11.23;;
15192;SDS011;7697;51.630;7.484;2024-01-06T07:11:30;12.68;;;9.63;;
15192;SDS011;7697;51.630;7.484;2024-01-06T07:16:31;12.65;;;9.88;;
15192;SDS011;7697;51.630;7.484;2024-01-06T07:21:33;12.63;;;9.70;;
15192;SDS011;7697;51.630;7.484;2024-01-06T07:26:36;18.15;;;12.02;;
15192;SDS011;7697;51.630;7.484;2024-01-06T07:31:38;17.58;;;11.50;;
15192;SDS011;7697;51.630;7.484;2024-01-06T07:36:40;14.77;;;10.23;;
15192;SDS011;7697;51.630;7.484;2024-01-06T07:41:43;13.80;;;9.65;;
15192;SDS011;7697;51.630;7.484;2024-01-06T07:46:45;14.80;;;9.87;;
15192;SDS011;7697;51.630;7.484;2024-01-06T07:51:46;14.70;;;9.07;;
15192;SDS011;7697;51.630;7.484;2024-01-06T07:56:49;12.40;;;8.57;;
15192;SDS011;7697;51.630;7.484;2024-01-06T08:01:52;11.67;;;7.60;;
15192;SDS011;7697;51.630;7.484;2024-01-06T08:06:54;10.17;;;6.53;;
15192;SDS011;7697;51.630;7.484;2024-01-06T08:11:57;8.27;;;6.03;;
15192;SDS011;7697;51.630;7.484;2024-01-06T08:16:59;7.70;;;5.53;;
15192;SDS011;7697;51.630;7.484;2024-01-06T08:22:01;6.40;;;5.13;;
15192;SDS011;7697;51.630;7.484;2024-01-06T08:27:04;6.17;;;5.07;;
15192;SDS011;7697;51.630;7.484;2024-01-06T08:32:06;6.53;;;5.00;;
15192;SDS011;7697;51.630;7.484;2024-01-06T08:37:08;7.17;;;5.43;;
15192;SDS011;7697;51.630;7.484;2024-01-06T08:42:11;7.83;;;5.13;;
15192;SDS011;7697;51.630;7.484;2024-01-06T08:47:13;8.30;;;6.10;;
15192;SDS011;7697;51.630;7.484;2024-01-06T08:52:15;10.30;;;7.20;;
15192;SDS011;7697;51.630;7.484;2024-01-06T08:57:18;8.87;;;6.57;;
15192;SDS011;7697;51.630;7.484;2024-01-06T09:07:30;10.10;;;7.43;;
15192;SDS011;7697;51.630;7.484;2024-01-06T09:12:34;14.47;;;10.17;;
15192;SDS011;7697;51.630;7.484;2024-01-06T09:22:46;11.97;;;9.07;;
15192;SDS011;7697;51.630;7.484;2024-01-06T09:27:50;14.93;;;9.90;;
15192;SDS011;7697;51.630;7.484;2024-01-06T09:32:53;17.23;;;10.43;;
15192;SDS011;7697;51.630;7.484;2024-01-06T09:37:54;15.67;;;9.53;;
15192;SDS011;7697;51.630;7.484;2024-01-06T09:42:58;17.23;;;11.57;;
15192;SDS011;7697;51.630;7.484;2024-01-06T09:48:01;16.03;;;11.63;;
15192;SDS011;7697;51.630;7.484;2024-01-06T09:53:10;19.87;;;12.93;;
15192;SDS011;7697;51.630;7.484;2024-01-06T09:58:14;21.53;;;13.23;;
15192;SDS011;7697;51.630;7.484;2024-01-06T10:03:15;19.37;;;13.20;;
15192;SDS011;7697;51.630;7.484;2024-01-06T10:08:18;19.90;;;14.13;;
15192;SDS011;7697;51.630;7.484;2024-01-06T10:13:21;19.17;;;12.77;;
15192;SDS011;7697;51.630;7.484;2024-01-06T10:18:24;18.23;;;12.90;;
15192;SDS011;7697;51.630;7.484;2024-01-06T10:23:29;19.20;;;12.63;;
15192;SDS011;7697;51.630;7.484;2024-01-06T10:28:34;18.17;;;12.73;;
15192;SDS011;7697;51.630;7.484;2024-01-06T10:33:37;18.03;;;12.50;;
15192;SDS011;7697;51.630;7.484;2024-01-06T10:38:40;15.70;;;11.43;;
15192;SDS011;7697;51.630;7.484;2024-01-06T10:43:47;15.93;;;11.03;;
15192;SDS011;7697;51.630;7.484;2024-01-06T10:48:52;17.83;;;11.60;;
15192;SDS011;7697;51.630;7.484;2024-01-06T10:53:55;13.97;;;10.77;;
15192;SDS011;7697;51.630;7.484;2024-01-06T10:59:03;14.53;;;10.70;;
15192;SDS011;7697;51.630;7.484;2024-01-06T11:04:05;14.90;;;10.30;;
15192;SDS011;7697;51.630;7.484;2024-01-06T11:09:09;18.63;;;11.87;;
15192;SDS011;7697;51.630;7.484;2024-01-06T11:14:19;15.77;;;10.97;;
15192;SDS011;7697;51.630;7.484;2024-01-06T11:19:42;14.23;;;9.80;;
15192;SDS011;7697;51.630;7.484;2024-01-06T11:24:46;14.40;;;10.30;;
15192;SDS011;7697;51.630;7.484;2024-01-06T11:29:52;14.93;;;10.67;;
15192;SDS011;7697;51.630;7.484;2024-01-06T11:34:54;13.23;;;9.93;;
15192;SDS011;7697;51.630;7.484;2024-01-06T11:39:58;15.43;;;10.23;;
15192;SDS011;7697;51.630;7.484;2024-01-06T11:45:03;16.10;;;10.37;;
15192;SDS011;7697;51.630;7.484;2024-01-06T11:50:06;17.23;;;10.77;;
15192;SDS011;7697;51.630;7.484;2024-01-06T11:55:09;15.00;;;9.90;;
15192;SDS011;7697;51.630;7.484;2024-01-06T12:00:13;13.80;;;9.33;;
15192;SDS011;7697;51.630;7.484;2024-01-06T12:05:15;12.63;;;8.93;;
15192;SDS011;7697;51.630;7.484;2024-01-06T12:10:19;11.50;;;8.53;;
15192;SDS011;7697;51.630;7.484;2024-01-06T12:15:23;11.97;;;8.40;;
15192;SDS011;7697;51.630;7.484;2024-01-06T12:20:26;12.10;;;8.43;;
15192;SDS011;7697;51.630;7.484;2024-01-06T12:25:28;12.30;;;8.27;;
15192;SDS011;7697;51.630;7.484;2024-01-06T12:30:35;11.67;;;7.70;;
15192;SDS011;7697;51.630;7.484;2024-01-06T12:35:39;10.00;;;6.87;;
15192;SDS011;7697;51.630;7.484;2024-01-06T12:40:42;11.03;;;7.33;;
15192;SDS011;7697;51.630;7.484;2024-01-06T12:45:46;10.90;;;7.43;;
15192;SDS011;7697;51.630;7.484;2024-01-06T12:50:48;9.43;;;6.73;;
15192;SDS011;7697;51.630;7.484;2024-01-06T12:55:49;10.67;;;7.70;;
15192;SDS011;7697;51.630;7.484;2024-01-06T13:00:53;14.30;;;7.90;;
15192;SDS011;7697;51.630;7.484;2024-01-06T13:05:57;10.93;;;7.33;;
15192;SDS011;7697;51.630;7.484;2024-01-06T13:10:59;13.00;;;8.37;;
15192;SDS011;7697;51.630;7.484;2024-01-06T13:16:06;12.10;;;7.93;;
15192;SDS011;7697;51.630;7.484;2024-01-06T13:21:38;10.53;;;7.67;;
15192;SDS011;7697;51.630;7.484;2024-01-06T13:26:54;10.67;;;7.30;;
15192;SDS011;7697;51.630;7.484;2024-01-06T13:32:23;11.50;;;7.97;;
15192;SDS011;7697;51.630;7.484;2024-01-06T13:43:03;10.93;;;8.13;;
15192;SDS011;7697;51.630;7.484;2024-01-06T13:48:25;10.77;;;7.47;;
15192;SDS011;7697;51.630;7.484;2024-01-06T13:53:32;13.53;;;8.50;;
15192;SDS011;7697;51.630;7.484;2024-01-06T13:58:34;11.00;;;7.20;;
15192;SDS011;7697;51.630;7.484;2024-01-06T14:03:41;10.00;;;7.13;;
15192;SDS011;7697;51.630;7.484;2024-01-06T14:09:00;11.07;;;7.63;;
15192;SDS011;7697;51.630;7.484;2024-01-06T14:14:05;11.27;;;7.57;;
15192;SDS011;7697;51.630;7.484;2024-01-06T14:19:09;10.07;;;7.50;;
15192;SDS011;7697;51.630;7.484;2024-01-06T14:24:12;10.43;;;7.80;;
15192;SDS011;7697;51.630;7.484;2024-01-06T14:29:14;10.17;;;7.53;;
15192;SDS011;7697;51.630;7.484;2024-01-06T14:34:17;12.97;;;8.40;;
15192;SDS011;7697;51.630;7.484;2024-01-06T14:39:19;10.40;;;8.07;;
15192;SDS011;7697;51.630;7.484;2024-01-06T14:44:22;11.37;;;8.90;;
15192;SDS011;7697;51.630;7.484;2024-01-06T14:49:28;11.77;;;8.73;;
15192;SDS011;7697;51.630;7.484;2024-01-06T14:54:30;10.83;;;8.13;;
15192;SDS011;7697;51.630;7.484;2024-01-06T14:59:33;12.60;;;9.27;;
15192;SDS011;7697;51.630;7.484;2024-01-06T15:04:38;13.33;;;9.10;;
15192;SDS011;7697;51.630;7.484;2024-01-06T15:09:40;11.30;;;8.97;;
15192;SDS011;7697;51.630;7.484;2024-01-06T15:14:42;14.45;;;11.88;;
15192;SDS011;7697;51.630;7.484;2024-01-06T15:19:45;12.10;;;10.55;;
15192;SDS011;7697;51.630;7.484;2024-01-06T15:24:47;12.50;;;9.23;;
15192;SDS011;7697;51.630;7.484;2024-01-06T15:29:49;11.37;;;9.17;;
15192;SDS011;7697;51.630;7.484;2024-01-06T15:34:53;10.70;;;7.80;;
15192;SDS011;7697;51.630;7.484;2024-01-06T15:39:54;10.17;;;6.93;;
15192;SDS011;7697;51.630;7.484;2024-01-06T15:44:56;26.10;;;18.10;;
15192;SDS011;7697;51.630;7.484;2024-01-06T15:49:59;11.80;;;8.97;;
15192;SDS011;7697;51.630;7.484;2024-01-06T15:55:05;10.93;;;8.73;;
15192;SDS011;7697;51.630;7.484;2024-01-06T16:00:12;11.20;;;7.50;;
15192;SDS011;7697;51.630;7.484;2024-01-06T16:05:19;10.70;;;6.80;;
15192;SDS011;7697;51.630;7.484;2024-01-06T16:10:24;9.67;;;7.10;;
15192;SDS011;7697;51.630;7.484;2024-01-06T16:15:26;13.40;;;7.60;;
15192;SDS011;7697;51.630;7.484;2024-01-06T16:20:29;9.90;;;7.53;;
15192;SDS011;7697;51.630;7.484;2024-01-06T16:25:31;9.13;;;7.30;;
15192;SDS011;7697;51.630;7.484;2024-01-06T16:30:38;10.30;;;7.27;;
15192;SDS011;7697;51.630;7.484;2024-01-06T16:35:42;8.93;;;7.37;;
15192;SDS011;7697;51.630;7.484;2024-01-06T16:40:46;9.03;;;7.13;;
15192;SDS011;7697;51.630;7.484;2024-01-06T16:45:47;10.00;;;7.80;;
15192;SDS011;7697;51.630;7.484;2024-01-06T16:50:50;10.47;;;8.23;;
15192;SDS011;7697;51.630;7.484;2024-01-06T16:55:52;10.43;;;8.20;;
15192;SDS011;7697;51.630;7.484;2024-01-06T17:00:54;10.43;;;8.00;;
15192;SDS011;7697;51.630;7.484;2024-01-06T17:05:57;12.43;;;8.47;;
15192;SDS011;7697;51.630;7.484;2024-01-06T17:10:59;11.23;;;8.73;;
15192;SDS011;7697;51.630;7.484;2024-01-06T17:16:00;11.53;;;8.67;;
15192;SDS011;7697;51.630;7.484;2024-01-06T17:21:03;12.70;;;9.23;;
15192;SDS011;7697;51.630;7.484;2024-01-06T17:26:05;11.17;;;9.00;;
15192;SDS011;7697;51.630;7.484;2024-01-06T17:31:07;14.53;;;9.70;;
15192;SDS011;7697;51.630;7.484;2024-01-06T17:36:12;16.20;;;11.27;;
15192;SDS011;7697;51.630;7.484;2024-01-06T17:41:14;15.13;;;10.77;;
15192;SDS011;7697;51.630;7.484;2024-01-06T17:46:16;15.33;;;11.73;;
15192;SDS011;7697;51.630;7.484;2024-01-06T17:51:19;14.93;;;11.33;;
15192;SDS011;7697;51.630;7.484;2024-01-06T17:56:24;16.53;;;11.63;;
15192;SDS011;7697;51.630;7.484;2024-01-06T18:01:26;14.73;;;11.10;;
15192;SDS011;7697;51.630;7.484;2024-01-06T18:06:29;17.13;;;11.03;;
15192;SDS011;7697;51.630;7.484;2024-01-06T18:11:31;15.40;;;11.53;;
15192;SDS011;7697;51.630;7.484;2024-01-06T18:16:32;22.50;;;15.03;;
15192;SDS011;7697;51.630;7.484;2024-01-06T18:21:35;15.97;;;11.73;;
15192;SDS011;7697;51.630;7.484;2024-01-06T18:26:37;20.07;;;14.33;;
15192;SDS011;7697;51.630;7.484;2024-01-06T18:31:39;14.57;;;10.17;;
15192;SDS011;7697;51.630;7.484;2024-01-06T18:36:42;12.83;;;10.13;;
15192;SDS011;7697;51.630;7.484;2024-01-06T18:41:44;16.93;;;11.80;;
15192;SDS011;7697;51.630;7.484;2024-01-06T18:46:46;20.60;;;14.27;;
15192;SDS011;7697;51.630;7.484;2024-01-06T18:51:49;16.37;;;11.77;;
15192;SDS011;7697;51.630;7.484;2024-01-06T18:56:51;20.20;;;14.73;;
15192;SDS011;7697;51.630;7.484;2024-01-06T19:01:52;14.50;;;11.30;;
15192;SDS011;7697;51.630;7.484;2024-01-06T19:06:55;13.43;;;9.77;;
15192;SDS011;7697;51.630;7.484;2024-01-06T19:11:57;14.40;;;9.93;;
15192;SDS011;7697;51.630;7.484;2024-01-06T19:16:59;12.77;;;9.70;;
15192;SDS011;7697;51.630;7.484;2024-01-06T19:22:03;12.93;;;9.33;;
15192;SDS011;7697;51.630;7.484;2024-01-06T19:27:04;11.73;;;9.00;;
15192;SDS011;7697;51.630;7.484;2024-01-06T19:32:06;13.63;;;10.03;;
15192;SDS011;7697;51.630;7.484;2024-01-06T19:37:09;11.30;;;8.93;;
15192;SDS011;7697;51.630;7.484;2024-01-06T19:42:11;10.50;;;8.37;;
15192;SDS011;7697;51.630;7.484;2024-01-06T19:47:13;10.43;;;8.77;;
15192;SDS011;7697;51.630;7.484;2024-01-06T19:52:16;10.83;;;8.60;;
15192;SDS011;7697;51.630;7.484;2024-01-06T19:57:18;10.03;;;8.10;;
15192;SDS011;7697;51.630;7.484;2024-01-06T20:02:20;12.17;;;8.30;;
15192;SDS011;7697;51.630;7.484;2024-01-06T20:07:23;10.30;;;7.93;;
15192;SDS011;7697;51.630;7.484;2024-01-06T20:12:28;11.83;;;8.53;;
15192;SDS011;7697;51.630;7.484;2024-01-06T20:17:30;8.60;;;7.40;;
15192;SDS011;7697;51.630;7.484;2024-01-06T20:22:33;8.47;;;7.17;;
15192;SDS011;7697;51.630;7.484;2024-01-06T20:27:35;9.77;;;7.70;;
15192;SDS011;7697;51.630;7.484;2024-01-06T20:32:37;8.30;;;7.10;;
15192;SDS011;7697;51.630;7.484;2024-01-06T20:37:40;9.40;;;7.93;;
15192;SDS011;7697;51.630;7.484;2024-01-06T20:42:42;9.10;;;7.87;;
15192;SDS011;7697;51.630;7.484;2024-01-06T20:47:43;9.07;;;7.30;;
15192;SDS011;7697;51.630;7.484;2024-01-06T20:52:47;11.20;;;8.53;;
15192;SDS011;7697;51.630;7.484;2024-01-06T20:57:49;10.13;;;8.20;;
15192;SDS011;7697;51.630;7.484;2024-01-06T21:02:50;9.83;;;7.93;;
15192;SDS011;7697;51.630;7.484;2024-01-06T21:07:53;9.43;;;7.70;;
15192;SDS011;7697;51.630;7.484;2024-01-06T21:12:55;8.00;;;6.77;;
15192;SDS011;7697;51.630;7.484;2024-01-06T21:17:57;9.27;;;7.43;;
15192;SDS011;7697;51.630;7.484;2024-01-06T21:23:00;9.27;;;7.70;;
15192;SDS011;7697;51.630;7.484;2024-01-06T21:28:03;10.80;;;7.80;;
15192;SDS011;7697;51.630;7.484;2024-01-06T21:33:05;8.13;;;7.03;;
15192;SDS011;7697;51.630;7.484;2024-01-06T21:38:08;10.77;;;7.67;;
15192;SDS011;7697;51.630;7.484;2024-01-06T21:43:12;9.17;;;7.20;;
15192;SDS011;7697;51.630;7.484;2024-01-06T21:48:14;10.27;;;7.63;;
15192;SDS011;7697;51.630;7.484;2024-01-06T21:53:17;10.70;;;8.20;;
15192;SDS011;7697;51.630;7.484;2024-01-06T21:58:19;10.37;;;7.90;;
15192;SDS011;7697;51.630;7.484;2024-01-06T22:03:20;9.80;;;8.17;;
15192;SDS011;7697;51.630;7.484;2024-01-06T22:08:24;10.40;;;8.20;;
15192;SDS011;7697;51.630;7.484;2024-01-06T22:13:25;11.30;;;9.43;;
15192;SDS011;7697;51.630;7.484;2024-01-06T22:18:27;10.77;;;8.23;;
15192;SDS011;7697;51.630;7.484;2024-01-06T22:23:30;11.10;;;8.83;;
15192;SDS011;7697;51.630;7.484;2024-01-06T22:28:32;10.53;;;9.43;;
15192;SDS011;7697;51.630;7.484;2024-01-06T22:33:34;10.37;;;8.37;;
15192;SDS011;7697;51.630;7.484;2024-01-06T22:38:37;9.70;;;7.93;;
15192;SDS011;7697;51.630;7.484;2024-01-06T22:43:38;8.87;;;7.73;;
15192;SDS011;7697;51.630;7.484;2024-01-06T22:48:40;10.50;;;8.80;;
15192;SDS011;7697;51.630;7.484;2024-01-06T22:53:43;10.97;;;8.47;;
15192;SDS011;7697;51.630;7.484;2024-01-06T22:58:45;10.97;;;8.80;;
15192;SDS011;7697;51.630;7.484;2024-01-06T23:03:47;11.50;;;8.73;;
15192;SDS011;7697;51.630;7.484;2024-01-06T23:08:50;10.93;;;8.70;;
15192;SDS011;7697;51.630;7.484;2024-01-06T23:13:52;11.17;;;9.17;;
15192;SDS011;7697;51.630;7.484;2024-01-06T23:18:53;12.13;;;9.47;;
15192;SDS011;7697;51.630;7.484;2024-01-06T23:23:59;11.87;;;9.10;;
15192;SDS011;7697;51.630;7.484;2024-01-06T23:29:00;11.40;;;8.93;;
15192;SDS011;7697;51.630;7.484;2024-01-06T23:34:02;12.80;;;9.20;;
15192;SDS011;7697;51.630;7.484;2024-01-06T23:39:05;12.33;;;8.97;;
15192;SDS011;7697;51.630;7.484;2024-01-06T23:44:07;11.63;;;8.87;;
15192;SDS011;7697;51.630;7.484;2024-01-06T23:49:11;11.77;;;9.17;;
15192;SDS011;7697;51.630;7.484;2024-01-06T23:54:15;9.70;;;7.90;;
15192;SDS011;7697;51.630;7.484;2024-01-06T23:59:17;11.70;;;9.37;;
